Terminal Aerodrome Forecast
Issued by NWS Northern Indiana

Home | Current Version | Previous Version | Text Only | Print | Product List | Glossary Off
Versions: 1 2 3 4 5 6 7 8 9 10 11 12 13 14 15 16 17 18

000
FTUS43 KIWX 141120
TAFFWA
TAF
KFWA 141120Z 1412/1512 09008KT P6SM OVC035
     FM141300 08007KT P6SM VCSH OVC025
     FM141500 06006KT P6SM OVC015
     FM142100 31006KT P6SM BKN020
     FM150400 33006KT P6SM SCT200=

USA.gov is the U.S. government's official web portal to all federal, state and local government web resources and services.